Time;durP1;ratioP1;P1;durP2;ratioP2;P2;SDS_P1;SDS_P2;PMS_P1;PMS_P2;Temp;Humidity;BMP_temperature;BMP_pressure;BME280_temperature;BME280_humidity;BME280_pressure;Samples;Min_cycle;Max_cycle;Signal;HPM_P1;HPM_P2
2022/09/20 04:02:36;;;;;;;6.10;5.20;;;11.40;99.90;;;;;;5117554;23;20495;-72
2022/09/20 04:05:06;;;;;;;4.87;4.10;;;11.40;99.90;;;;;;4985440;28;20521;-72
2022/09/20 04:07:42;;;;;;;10.00;5.60;;;11.40;99.90;;;;;;4985267;28;20488;-72
2022/09/20 04:10:28;;;;;;;5.20;4.67;;;11.40;99.90;;;;;;4985701;28;20509;-72
2022/09/20 04:13:13;;;;;;;6.80;4.90;;;11.40;99.90;;;;;;4966503;28;20460;-72
2022/09/20 04:15:50;;;;;;;7.40;5.30;;;11.40;99.90;;;;;;4965728;28;20452;-72
2022/09/20 04:18:24;;;;;;;10.63;4.30;;;11.50;99.90;;;;;;4966429;28;20451;-72
2022/09/20 04:21:00;;;;;;;9.63;4.83;;;11.50;99.90;;;;;;4965411;28;20472;-72
2022/09/20 04:23:39;;;;;;;7.77;4.20;;;11.50;99.90;;;;;;4966623;28;20452;-72
2022/09/20 04:26:06;;;;;;;5.17;4.50;;;11.50;99.90;;;;;;4965702;28;20488;-72
2022/09/20 04:28:39;;;;;;;6.70;4.20;;;11.50;99.90;;;;;;4966637;28;20464;-72
2022/09/20 04:31:17;;;;;;;11.03;4.63;;;11.50;99.90;;;;;;4965087;28;20476;-72
2022/09/20 04:33:50;;;;;;;8.43;4.50;;;11.40;99.90;;;;;;4966693;28;20463;-71
2022/09/20 04:36:45;;;;;;;6.33;4.53;;;11.40;99.90;;;;;;4965584;28;20448;-72
2022/09/20 04:39:21;;;;;;;5.70;4.40;;;11.50;99.90;;;;;;4962962;28;20848;-72
2022/09/20 04:42:19;;;;;;;6.33;4.70;;;11.50;99.90;;;;;;4966557;28;20480;-72
2022/09/20 04:45:15;;;;;;;7.00;5.20;;;11.50;99.90;;;;;;4965717;28;20515;-72
2022/09/20 04:48:03;;;;;;;7.23;4.43;;;11.40;99.90;;;;;;4966777;28;20488;-73
2022/09/20 04:51:08;;;;;;;6.20;4.73;;;11.40;99.90;;;;;;4966366;28;20480;-67
2022/09/20 04:53:57;;;;;;;8.03;4.37;;;11.30;99.90;;;;;;4962959;28;20479;-66
2022/09/20 04:56:33;;;;;;;8.70;5.23;;;11.30;99.90;;;;;;4966454;28;20449;-66
2022/09/20 04:59:06;;;;;;;6.70;5.13;;;11.20;99.90;;;;;;4966422;28;20452;-66
2022/09/20 05:02:03;;;;;;;6.40;4.63;;;11.10;99.90;;;;;;4966910;28;20496;-66
2022/09/20 05:05:02;;;;;;;9.93;5.10;;;11.10;99.90;;;;;;4969867;28;20891;-76
2022/09/20 05:08:04;;;;;;;12.83;4.60;;;11.10;99.90;;;;;;4970475;28;20572;-76
2022/09/20 05:11:08;;;;;;;14.30;5.23;;;11.10;99.90;;;;;;4969966;28;20835;-76
2022/09/20 05:13:55;;;;;;;10.23;5.37;;;11.00;99.90;;;;;;4970481;28;20600;-77
2022/09/20 05:16:29;;;;;;;9.63;5.37;;;11.00;99.90;;;;;;4969781;28;20444;-76
2022/09/20 05:19:16;;;;;;;11.63;5.30;;;11.00;99.90;;;;;;4970456;28;20531;-76
2022/09/20 05:22:12;;;;;;;7.97;5.40;;;10.90;99.90;;;;;;4969636;28;20534;-76
2022/09/20 05:25:21;;;;;;;9.20;4.83;;;10.90;99.90;;;;;;4960223;28;20483;-77
2022/09/20 05:27:54;;;;;;;7.17;4.87;;;10.80;99.90;;;;;;4965734;28;20500;-77
2022/09/20 05:30:33;;;;;;;8.60;5.10;;;10.80;99.90;;;;;;4969922;28;20471;-77
2022/09/20 05:33:14;;;;;;;6.63;5.07;;;10.80;99.90;;;;;;4970240;28;20531;-77
2022/09/20 05:35:47;;;;;;;7.20;5.80;;;10.90;99.90;;;;;;4969646;28;20444;-77
2022/09/20 05:38:22;;;;;;;7.77;5.77;;;10.90;99.90;;;;;;4969282;28;20448;-76
2022/09/20 05:41:12;;;;;;;5.37;4.60;;;10.90;99.90;;;;;;4969914;28;21035;-77
2022/09/20 05:43:48;;;;;;;7.37;5.43;;;10.90;99.90;;;;;;4969644;28;20547;-76
2022/09/20 05:46:32;;;;;;;6.47;5.30;;;10.80;99.90;;;;;;4968637;28;21169;-76
2022/09/20 05:49:07;;;;;;;9.10;5.13;;;10.80;99.90;;;;;;4969123;28;20456;-76
2022/09/20 05:52:02;;;;;;;6.70;5.30;;;10.80;99.90;;;;;;4969616;28;20575;-77
2022/09/20 05:54:50;;;;;;;6.70;5.27;;;10.80;99.90;;;;;;4959659;28;20464;-77
2022/09/20 05:57:31;;;;;;;7.60;5.57;;;10.80;99.90;;;;;;4948835;28;20960;-77
2022/09/20 06:00:06;;;;;;;6.90;5.67;;;10.80;99.90;;;;;;4969493;28;20451;-77
2022/09/20 06:02:47;;;;;;;9.50;6.63;;;10.80;99.90;;;;;;4968867;28;20492;-76
2022/09/20 06:05:16;;;;;;;7.80;6.37;;;10.80;99.90;;;;;;4967835;28;20444;-76
2022/09/20 06:08:02;;;;;;;12.63;6.33;;;10.70;99.90;;;;;;4969012;28;20500;-76
2022/09/20 06:10:54;;;;;;;8.27;6.33;;;10.70;99.90;;;;;;4968928;28;20507;-76
2022/09/20 06:13:59;;;;;;;15.20;8.80;;;10.70;99.90;;;;;;4968322;28;20468;-76
2022/09/20 06:16:36;;;;;;;11.97;7.87;;;10.80;99.90;;;;;;4961864;28;20472;-77
2022/09/20 06:19:16;;;;;;;12.17;8.30;;;10.70;99.90;;;;;;4967963;28;20455;-76
2022/09/20 06:21:50;;;;;;;8.73;7.53;;;10.70;99.90;;;;;;4969080;28;20487;-77
2022/09/20 06:24:35;;;;;;;10.00;6.93;;;10.80;99.90;;;;;;4968248;28;20899;-77
2022/09/20 06:27:08;;;;;;;12.40;8.27;;;10.80;99.90;;;;;;4968691;28;20519;-77
2022/09/20 06:29:38;;;;;;;10.87;7.20;;;10.80;99.90;;;;;;4968586;28;20519;-77
2022/09/20 06:32:07;;;;;;;13.77;7.33;;;10.80;99.90;;;;;;4968640;28;20484;-77
2022/09/20 06:34:35;;;;;;;8.93;6.60;;;10.80;99.90;;;;;;4967585;28;20461;-77
2022/09/20 06:42:51;;;;;;;11.83;6.60;;;10.60;99.90;;;;;;4968392;28;20873;-76
2022/09/20 06:45:18;;;;;;;10.77;5.93;;;10.60;99.90;;;;;;4967643;28;20499;-76
2022/09/20 06:47:44;;;;;;;10.70;5.97;;;10.50;99.90;;;;;;4967938;28;20502;-76
2022/09/20 06:50:17;;;;;;;8.67;6.53;;;10.40;99.90;;;;;;4967688;28;20460;-76
2022/09/20 06:52:45;;;;;;;7.97;5.70;;;10.40;99.90;;;;;;4967978;28;20457;-76
2022/09/20 06:55:20;;;;;;;10.30;6.73;;;10.40;99.90;;;;;;4966967;28;20552;-76
2022/09/20 06:57:47;;;;;;;13.57;6.47;;;10.30;99.90;;;;;;4968037;28;20456;-76
2022/09/20 07:00:14;;;;;;;18.93;7.23;;;10.30;99.90;;;;;;4967818;28;20476;-76
2022/09/20 07:02:41;;;;;;;10.53;6.20;;;10.40;99.90;;;;;;4967794;28;21024;-77
2022/09/20 07:05:16;;;;;;;9.70;5.93;;;10.50;99.90;;;;;;4967566;28;20464;-76
2022/09/20 07:07:46;;;;;;;13.80;6.73;;;10.40;99.90;;;;;;4967762;28;20591;-76
2022/09/20 07:10:13;;;;;;;14.97;7.40;;;10.40;99.90;;;;;;4967684;28;20475;-76
2022/09/20 07:12:40;;;;;;;23.00;8.17;;;10.40;99.90;;;;;;4967563;28;20567;-76
2022/09/20 07:15:08;;;;;;;12.80;7.10;;;10.30;99.90;;;;;;4967501;28;20461;-76
2022/09/20 07:17:35;;;;;;;12.57;8.27;;;10.30;99.90;;;;;;4967754;28;20468;-76
2022/09/20 07:20:03;;;;;;;17.40;9.80;;;10.30;99.90;;;;;;4967666;28;20479;-76
2022/09/20 07:22:29;;;;;;;10.33;8.20;;;10.40;99.90;;;;;;4967729;28;20477;-76
2022/09/20 07:25:01;;;;;;;12.63;7.33;;;10.40;99.90;;;;;;4966792;28;21246;-76
2022/09/20 07:27:28;;;;;;;14.00;9.53;;;10.30;99.90;;;;;;4967322;28;20489;-76
2022/09/20 07:29:55;;;;;;;20.33;11.30;;;10.40;99.90;;;;;;4967356;28;20467;-76
2022/09/20 07:32:22;;;;;;;14.73;9.53;;;10.40;99.90;;;;;;4967155;28;21041;-76
2022/09/20 07:34:48;;;;;;;18.23;10.37;;;10.40;99.90;;;;;;4966821;28;20469;-76
2022/09/20 07:37:17;;;;;;;20.47;11.30;;;10.40;99.90;;;;;;4967748;28;20461;-76
2022/09/20 07:39:45;;;;;;;21.33;11.50;;;10.50;99.90;;;;;;4967013;28;21042;-76
2022/09/20 07:42:14;;;;;;;18.33;11.53;;;10.50;99.90;;;;;;4966721;28;20836;-76
2022/09/20 07:44:42;;;;;;;14.90;11.23;;;10.50;99.90;;;;;;4966434;28;20471;-76
2022/09/20 07:47:10;;;;;;;24.87;11.30;;;10.60;99.90;;;;;;4967287;28;20504;-76
2022/09/20 07:49:37;;;;;;;14.60;11.20;;;10.60;99.90;;;;;;4967411;28;20461;-76
2022/09/20 07:52:04;;;;;;;19.00;11.47;;;10.70;99.90;;;;;;4967146;28;20484;-76
2022/09/20 07:54:31;;;;;;;20.83;10.27;;;10.70;99.90;;;;;;4966123;28;20468;-76
2022/09/20 07:56:59;;;;;;;19.13;11.97;;;10.80;99.90;;;;;;4967107;28;20544;-76
2022/09/20 07:59:27;;;;;;;16.00;11.93;;;10.80;99.90;;;;;;4967139;28;20464;-76
2022/09/20 08:01:56;;;;;;;17.43;10.30;;;10.90;99.90;;;;;;4966795;28;20491;-76
2022/09/20 08:04:23;;;;;;;16.80;11.07;;;10.90;99.90;;;;;;4966424;28;20492;-76
2022/09/20 08:06:49;;;;;;;14.37;9.90;;;11.00;99.90;;;;;;4966963;28;20452;-76
2022/09/20 08:09:16;;;;;;;18.10;9.10;;;11.10;99.90;;;;;;4966637;28;20467;-76
2022/09/20 08:11:44;;;;;;;18.57;10.30;;;11.10;99.90;;;;;;4966945;28;20535;-76
2022/09/20 08:14:14;;;;;;;14.33;7.20;;;11.10;99.90;;;;;;4966484;28;20467;-76
2022/09/20 08:16:44;;;;;;;20.13;7.30;;;11.20;99.90;;;;;;4966996;28;20457;-76
2022/09/20 08:19:16;;;;;;;18.90;7.60;;;11.20;99.90;;;;;;4966884;28;20457;-76
2022/09/20 08:21:43;;;;;;;16.50;6.93;;;11.20;99.90;;;;;;4966483;28;20543;-76
2022/09/20 08:24:10;;;;;;;13.30;6.83;;;11.20;99.90;;;;;;4966545;28;20455;-76
2022/09/20 08:26:37;;;;;;;10.90;6.40;;;11.30;99.90;;;;;;4966859;28;20967;-76
2022/09/20 08:29:05;;;;;;;13.97;6.33;;;11.40;99.90;;;;;;4966339;28;20496;-76
2022/09/20 08:31:35;;;;;;;15.93;6.80;;;11.50;99.90;;;;;;4966836;28;20511;-76
2022/09/20 08:34:05;;;;;;;11.20;6.33;;;11.50;99.90;;;;;;4966028;28;20552;-76
2022/09/20 08:36:34;;;;;;;12.03;7.10;;;11.60;99.90;;;;;;4967589;28;20456;-76
2022/09/20 08:39:00;;;;;;;16.80;6.47;;;11.70;99.90;;;;;;4970955;28;20468;-76
2022/09/20 08:41:31;;;;;;;13.90;5.60;;;11.70;99.90;;;;;;4970419;28;20984;-76
2022/09/20 08:44:02;;;;;;;16.03;5.37;;;11.80;99.90;;;;;;4970099;28;20909;-76
2022/09/20 08:46:33;;;;;;;13.60;4.60;;;11.80;99.90;;;;;;4970702;28;20449;-76
2022/09/20 08:49:00;;;;;;;8.43;4.07;;;12.00;99.90;;;;;;4970862;28;20480;-76
2022/09/20 08:51:33;;;;;;;11.03;3.87;;;12.00;99.90;;;;;;4970523;28;20476;-76
2022/09/20 08:54:03;;;;;;;10.90;3.70;;;12.10;99.90;;;;;;4969794;28;20546;-76
2022/09/20 08:56:35;;;;;;;17.00;3.73;;;12.20;99.90;;;;;;4970487;28;20591;-76
2022/09/20 08:59:02;;;;;;;9.50;3.47;;;12.30;99.90;;;;;;4970290;28;20456;-76
2022/09/20 09:01:31;;;;;;;9.87;3.00;;;12.40;99.90;;;;;;4969906;28;20752;-76
2022/09/20 09:04:02;;;;;;;9.57;3.00;;;12.70;99.90;;;;;;4969703;28;20468;-76
2022/09/20 09:06:30;;;;;;;7.73;2.87;;;12.80;99.90;;;;;;4969665;28;20463;-76
2022/09/20 09:08:59;;;;;;;7.90;2.43;;;12.80;99.90;;;;;;4970080;28;21153;-76
2022/09/20 09:11:27;;;;;;;6.17;1.97;;;12.80;99.90;;;;;;4969924;28;21016;-76
2022/09/20 09:13:57;;;;;;;12.27;3.23;;;12.90;99.90;;;;;;4970089;28;20468;-76
2022/09/20 09:16:26;;;;;;;5.23;2.20;;;13.10;99.90;;;;;;4969727;28;21149;-76
2022/09/20 09:18:54;;;;;;;4.47;2.10;;;13.20;99.90;;;;;;4970195;28;20460;-76
2022/09/20 09:21:23;;;;;;;5.43;2.20;;;13.30;99.90;;;;;;4969745;28;20484;-75
2022/09/20 09:23:56;;;;;;;8.53;2.53;;;13.50;99.90;;;;;;4969740;28;20876;-75
2022/09/20 09:26:24;;;;;;;7.00;2.43;;;13.60;99.90;;;;;;4969310;28;20475;-75
2022/09/20 09:29:19;;;;;;;9.10;2.27;;;13.70;99.90;;;;;;4969453;28;21023;-75
2022/09/20 09:31:47;;;;;;;6.57;2.70;;;13.60;99.90;;;;;;4945816;28;20488;-75
2022/09/20 09:34:27;;;;;;;7.97;2.60;;;13.60;99.90;;;;;;4968871;28;20452;-75
2022/09/20 09:36:54;;;;;;;6.67;2.33;;;13.50;99.90;;;;;;4969681;28;20452;-75
2022/09/20 09:39:26;;;;;;;5.47;3.00;;;13.50;99.90;;;;;;4969511;28;20816;-75
2022/09/20 09:41:54;;;;;;;6.70;2.33;;;13.50;99.90;;;;;;4969548;28;20827;-75
2022/09/20 09:44:23;;;;;;;6.50;2.50;;;13.50;99.90;;;;;;4968606;28;20464;-75
2022/09/20 09:46:52;;;;;;;10.07;2.20;;;13.60;99.90;;;;;;4969688;28;20468;-74
2022/09/20 09:49:21;;;;;;;8.07;2.13;;;13.70;99.90;;;;;;4967718;28;20497;-74
2022/09/20 09:52:03;;;;;;;7.53;2.00;;;13.90;99.90;;;;;;4969455;28;20495;-75
2022/09/20 09:54:34;;;;;;;6.57;2.30;;;14.00;99.90;;;;;;4968439;28;20456;-75
2022/09/20 09:57:14;;;;;;;6.60;2.43;;;14.10;99.90;;;;;;4969197;28;20479;-75
2022/09/20 09:59:53;;;;;;;8.50;2.23;;;14.30;99.90;;;;;;4968853;28;21026;-75
2022/09/20 10:02:45;;;;;;;5.73;1.97;;;14.50;99.90;;;;;;4969056;28;20496;-75
2022/09/20 10:05:19;;;;;;;8.23;2.10;;;14.70;99.90;;;;;;4968244;28;20519;-75
2022/09/20 10:07:53;;;;;;;8.97;1.83;;;14.60;99.90;;;;;;4968788;28;20584;-75
2022/09/20 10:10:30;;;;;;;5.20;1.97;;;14.60;99.90;;;;;;4969441;28;20448;-75
2022/09/20 10:13:10;;;;;;;6.47;1.97;;;14.70;99.90;;;;;;4969116;28;20464;-74
2022/09/20 10:15:44;;;;;;;7.80;2.10;;;14.70;99.90;;;;;;4968435;28;20447;-74
2022/09/20 10:18:27;;;;;;;6.70;2.00;;;14.80;99.90;;;;;;4968671;28;20479;-75
2022/09/20 10:21:08;;;;;;;4.30;1.60;;;14.70;99.90;;;;;;4968694;28;20488;-74
2022/09/20 10:23:47;;;;;;;4.40;1.77;;;14.70;99.90;;;;;;4968624;28;20460;-74
2022/09/20 10:26:28;;;;;;;7.53;2.17;;;14.70;99.90;;;;;;4967749;28;20456;-75
2022/09/20 10:29:07;;;;;;;8.87;3.20;;;14.80;99.90;;;;;;4968112;28;20523;-75
2022/09/20 10:31:43;;;;;;;4.97;2.27;;;15.00;99.90;;;;;;4968534;28;20516;-75
2022/09/20 10:34:30;;;;;;;6.00;2.57;;;15.20;99.90;;;;;;4967660;28;20464;-75
2022/09/20 10:36:59;;;;;;;5.63;2.10;;;15.20;99.90;;;;;;4968701;28;20467;-75
2022/09/20 10:39:31;;;;;;;6.67;1.70;;;15.30;99.90;;;;;;4968485;28;21235;-75
2022/09/20 10:45:04;;;;;;;3.93;1.50;;;14.90;99.90;;;;;;4967419;28;20444;-75
2022/09/20 10:47:36;;;;;;;8.27;1.70;;;14.80;99.90;;;;;;4968312;28;20451;-75
2022/09/20 10:50:14;;;;;;;4.07;1.63;;;14.80;99.90;;;;;;4968494;28;20452;-75
2022/09/20 10:53:00;;;;;;;8.97;2.60;;;14.70;99.90;;;;;;4968229;28;20440;-75
2022/09/20 10:55:38;;;;;;;11.30;1.97;;;14.70;99.90;;;;;;4967206;28;20464;-75
2022/09/20 10:58:50;;;;;;;4.53;1.83;;;14.80;99.90;;;;;;4966951;28;20474;-74
2022/09/20 11:01:23;;;;;;;2.40;1.63;;;15.10;99.90;;;;;;4963923;28;20532;-74
2022/09/20 11:04:08;;;;;;;4.53;1.63;;;15.30;99.90;;;;;;4966883;28;20979;-74
2022/09/20 11:06:49;;;;;;;4.17;1.80;;;15.20;99.90;;;;;;4966956;28;20973;-74
2022/09/20 11:09:20;;;;;;;10.10;1.70;;;15.10;99.90;;;;;;4966789;28;20511;-74
2022/09/20 11:11:52;;;;;;;8.13;2.00;;;15.00;99.90;;;;;;4967675;28;20481;-75
2022/09/20 11:14:23;;;;;;;8.67;2.10;;;15.00;99.90;;;;;;4966858;28;20475;-75
2022/09/20 11:16:53;;;;;;;9.63;2.20;;;15.00;99.90;;;;;;4967585;28;20465;-75
2022/09/20 11:19:26;;;;;;;5.87;2.03;;;15.00;99.90;;;;;;4967784;28;20436;-75
2022/09/20 11:22:00;;;;;;;6.60;2.07;;;15.20;99.90;;;;;;4967651;28;20547;-75
2022/09/20 11:24:32;;;;;;;10.57;2.57;;;15.20;99.90;;;;;;4966304;28;20468;-77
2022/09/20 11:27:05;;;;;;;6.80;2.07;;;15.30;99.90;;;;;;4967757;28;20811;-75
2022/09/20 11:29:37;;;;;;;6.03;1.77;;;15.30;99.90;;;;;;4967554;28;20504;-75
2022/09/20 11:32:12;;;;;;;7.50;1.80;;;15.30;99.90;;;;;;4967370;28;21318;-75
2022/09/20 11:34:49;;;;;;;5.50;1.40;;;15.30;99.90;;;;;;4967009;28;20822;-77
2022/09/20 11:37:18;;;;;;;3.73;1.60;;;15.30;99.90;;;;;;4967127;28;20503;-75
2022/09/20 11:39:50;;;;;;;3.80;1.70;;;15.40;99.90;;;;;;4967042;28;20956;-75
2022/09/20 11:42:20;;;;;;;7.73;1.70;;;15.40;99.90;;;;;;4967410;28;20484;-76
2022/09/20 11:44:49;;;;;;;6.10;1.83;;;15.40;99.90;;;;;;4966709;28;20559;-76
2022/09/20 11:47:21;;;;;;;3.33;1.57;;;15.40;99.90;;;;;;4967222;28;21254;-75
2022/09/20 11:50:06;;;;;;;3.27;1.73;;;15.30;99.90;;;;;;4967174;28;20518;-76
2022/09/20 11:52:53;;;;;;;5.10;1.67;;;15.20;99.90;;;;;;4966276;28;20537;-75
2022/09/20 11:55:31;;;;;;;6.00;2.30;;;15.20;99.90;;;;;;4965702;28;20464;-75
2022/09/20 11:58:01;;;;;;;4.80;2.17;;;15.20;99.90;;;;;;4966258;28;20522;-75
2022/09/20 12:00:34;;;;;;;4.83;1.60;;;15.10;99.90;;;;;;4965727;28;20466;-75
2022/09/20 12:03:02;;;;;;;12.23;2.43;;;15.10;99.90;;;;;;4966515;28;20862;-75
2022/09/20 12:05:32;;;;;;;5.73;2.10;;;15.00;99.90;;;;;;4964954;28;20471;-75
2022/09/20 12:08:04;;;;;;;5.73;1.90;;;15.00;99.90;;;;;;4966086;28;20467;-75
2022/09/20 12:10:33;;;;;;;4.83;1.63;;;15.00;99.90;;;;;;4966075;28;20444;-75
2022/09/20 12:13:02;;;;;;;3.03;1.60;;;14.90;99.90;;;;;;4965090;28;20465;-75
2022/09/20 12:15:33;;;;;;;4.07;2.10;;;14.80;99.90;;;;;;4965525;28;20460;-75
2022/09/20 12:18:24;;;;;;;9.23;1.93;;;15.00;99.90;;;;;;4965836;28;20826;-75
2022/09/20 12:21:03;;;;;;;4.47;1.80;;;15.30;99.90;;;;;;4965920;28;20487;-75
2022/09/20 12:24:10;;;;;;;3.63;1.67;;;15.70;99.90;;;;;;4965799;28;20444;-75
2022/09/20 12:26:43;;;;;;;3.40;1.30;;;16.00;99.90;;;;;;4966042;28;20444;-76
2022/09/20 12:29:53;;;;;;;5.50;2.07;;;16.30;99.90;;;;;;4966102;28;20472;-76
2022/09/20 12:32:49;;;;;;;5.47;1.67;;;16.70;99.90;;;;;;4965843;28;20476;-76
2022/09/20 12:35:56;;;;;;;6.20;2.40;;;17.10;99.90;;;;;;4965474;28;20447;-75
2022/09/20 12:38:33;;;;;;;6.10;2.70;;;17.20;99.90;;;;;;4966202;28;20459;-75
2022/09/20 12:41:02;;;;;;;5.80;1.93;;;17.30;99.90;;;;;;4966637;28;20527;-76
2022/09/20 12:43:31;;;;;;;5.57;2.00;;;17.40;99.90;;;;;;4966363;28;20827;-76
2022/09/20 12:45:59;;;;;;;4.87;1.83;;;17.50;99.90;;;;;;4966002;28;20468;-76
2022/09/20 12:48:35;;;;;;;3.80;1.60;;;17.40;99.90;;;;;;4965776;28;21284;-76
2022/09/20 12:54:06;;;;;;;4.90;1.53;;;17.30;99.90;;;;;;4965770;28;20424;-75
2022/09/20 12:56:36;;;;;;;2.83;1.50;;;17.20;99.90;;;;;;4966367;28;20538;-75
2022/09/20 12:59:06;;;;;;;4.43;1.50;;;17.10;99.90;;;;;;4966340;28;20461;-75
2022/09/20 13:01:39;;;;;;;5.50;2.03;;;17.10;99.90;;;;;;4966288;28;20498;-75
2022/09/20 13:04:54;;;;;;;3.27;1.80;;;16.90;99.90;;;;;;4966187;28;20445;-75
2022/09/20 13:07:51;;;;;;;5.53;2.40;;;16.60;99.90;;;;;;4925588;29;20910;-75
2022/09/20 13:10:25;;;;;;;6.50;2.30;;;16.60;99.90;;;;;;4925294;29;20595;-75
2022/09/20 13:12:58;;;;;;;5.50;2.20;;;16.40;99.90;;;;;;4957946;28;20467;-75
2022/09/20 13:15:26;;;;;;;6.03;1.97;;;16.40;99.90;;;;;;4965586;28;20448;-75
2022/09/20 13:17:56;;;;;;;4.07;1.80;;;16.30;99.90;;;;;;4966438;28;20469;-75
2022/09/20 13:20:26;;;;;;;4.20;1.80;;;16.20;99.90;;;;;;4966160;28;20500;-75
2022/09/20 13:22:55;;;;;;;4.30;1.80;;;16.20;99.90;;;;;;4967785;28;20503;-75
2022/09/20 13:25:23;;;;;;;6.77;1.87;;;16.00;99.90;;;;;;4968885;28;20843;-75
2022/09/20 13:27:55;;;;;;;5.00;2.17;;;15.90;99.90;;;;;;4969552;28;20963;-75
2022/09/20 13:30:25;;;;;;;7.60;1.77;;;16.00;99.90;;;;;;4969651;28;20504;-75
2022/09/20 13:32:53;;;;;;;4.33;1.70;;;16.20;99.90;;;;;;4969703;28;20527;-75
2022/09/20 13:35:22;;;;;;;5.50;1.70;;;16.40;99.90;;;;;;4968923;28;20456;-75
2022/09/20 13:37:56;;;;;;;3.37;1.30;;;16.70;99.90;;;;;;4969269;28;20855;-75
2022/09/20 13:40:32;;;;;;;5.27;1.50;;;16.90;99.90;;;;;;4969600;28;20460;-75
2022/09/20 13:43:01;;;;;;;3.23;1.67;;;17.10;99.90;;;;;;4969569;28;20928;-67
2022/09/20 13:45:29;;;;;;;2.80;1.50;;;17.40;99.90;;;;;;4968651;28;20464;-67
2022/09/20 13:47:58;;;;;;;3.77;1.53;;;17.60;99.90;;;;;;4969203;28;20499;-68
2022/09/20 13:50:29;;;;;;;5.90;1.50;;;17.60;99.90;;;;;;4969125;28;20537;-67
2022/09/20 13:53:00;;;;;;;3.67;1.40;;;17.70;99.90;;;;;;4969158;28;20463;-68
2022/09/20 13:55:32;;;;;;;3.33;1.20;;;17.80;99.90;;;;;;4968590;28;20457;-67
2022/09/20 13:58:02;;;;;;;3.97;1.20;;;17.90;99.90;;;;;;4969271;28;20844;-68
2022/09/20 14:00:29;;;;;;;3.93;1.27;;;17.90;99.90;;;;;;4969182;28;20437;-67
2022/09/20 14:02:58;;;;;;;4.20;1.90;;;17.90;99.90;;;;;;4969444;28;20453;-68
2022/09/20 14:05:28;;;;;;;5.87;1.73;;;17.70;99.90;;;;;;4968318;28;20468;-67
2022/09/20 14:07:56;;;;;;;1.77;1.20;;;17.50;99.90;;;;;;4969123;28;20552;-67
2022/09/20 14:10:31;;;;;;;9.13;2.00;;;17.30;99.90;;;;;;4968909;28;20526;-67
2022/09/20 14:13:00;;;;;;;5.67;1.70;;;17.10;99.90;;;;;;4969404;28;20459;-68
2022/09/20 14:15:32;;;;;;;4.30;1.60;;;16.90;99.90;;;;;;4968443;28;20517;-67
2022/09/20 14:17:59;;;;;;;6.93;2.47;;;16.70;99.90;;;;;;4968816;28;20553;-67
2022/09/20 14:20:26;;;;;;;4.20;1.80;;;16.50;99.90;;;;;;4969115;28;20467;-67
2022/09/20 14:22:54;;;;;;;3.60;1.73;;;16.50;99.90;;;;;;4968802;28;20469;-74
2022/09/20 14:25:24;;;;;;;7.20;2.27;;;16.40;99.90;;;;;;4967825;28;20979;-74
2022/09/20 14:28:17;;;;;;;4.60;1.80;;;16.40;99.90;;;;;;4968855;28;20551;-75
2022/09/20 14:30:46;;;;;;;4.97;1.90;;;16.40;99.90;;;;;;4967717;28;21164;-75
2022/09/20 14:33:16;;;;;;;8.30;2.20;;;16.60;99.90;;;;;;4966837;28;20460;-75
2022/09/20 14:35:47;;;;;;;5.70;2.20;;;16.80;99.90;;;;;;4966613;28;20550;-75
2022/09/20 14:38:15;;;;;;;7.80;2.33;;;17.00;99.90;;;;;;4968349;28;20796;-75
2022/09/20 14:40:44;;;;;;;4.17;2.10;;;17.00;99.90;;;;;;4968392;28;20469;-75
2022/09/20 14:43:26;;;;;;;7.60;2.47;;;17.10;99.90;;;;;;4968507;28;20457;-75
2022/09/20 14:45:55;;;;;;;8.20;2.97;;;17.20;99.90;;;;;;4966486;28;20487;-75
2022/09/20 14:48:36;;;;;;;7.97;2.47;;;17.20;99.90;;;;;;4959037;28;20464;-75
2022/09/20 14:51:20;;;;;;;7.80;2.50;;;17.40;99.90;;;;;;4951182;28;20493;-75
2022/09/20 14:53:49;;;;;;;4.97;2.20;;;17.60;99.90;;;;;;4949150;28;20441;-75
2022/09/20 14:56:17;;;;;;;7.63;2.27;;;17.80;99.90;;;;;;4946837;28;21126;-75
2022/09/20 14:59:05;;;;;;;4.20;2.07;;;17.80;99.90;;;;;;4947864;28;20465;-75
2022/09/20 15:01:33;;;;;;;6.90;2.17;;;17.70;99.90;;;;;;4948551;28;20500;-75
2022/09/20 15:04:05;;;;;;;6.00;1.70;;;17.80;99.90;;;;;;4948125;28;20521;-75
2022/09/20 15:06:34;;;;;;;7.73;1.80;;;17.70;99.90;;;;;;4948418;28;20970;-75
2022/09/20 15:09:01;;;;;;;4.20;1.40;;;17.40;99.90;;;;;;4948360;28;20950;-76
2022/09/20 15:11:28;;;;;;;5.40;2.00;;;17.20;99.90;;;;;;4948592;28;21058;-76
2022/09/20 15:13:55;;;;;;;3.73;1.93;;;17.20;99.90;;;;;;4948395;28;20957;-76
2022/09/20 15:16:23;;;;;;;5.00;2.10;;;17.20;99.90;;;;;;4948146;28;20469;-75
2022/09/20 15:18:50;;;;;;;7.70;2.30;;;17.30;99.90;;;;;;4948032;28;20465;-75
2022/09/20 15:21:17;;;;;;;5.33;2.00;;;17.40;99.90;;;;;;4948313;28;20481;-76
2022/09/20 15:23:44;;;;;;;6.57;2.10;;;17.50;99.90;;;;;;4948520;28;20468;-75
2022/09/20 15:26:12;;;;;;;3.83;1.63;;;17.60;99.90;;;;;;4947655;28;20997;-75
2022/09/20 15:28:39;;;;;;;4.63;1.63;;;17.80;99.90;;;;;;4947902;28;20691;-75
2022/09/20 15:31:06;;;;;;;6.40;2.00;;;18.00;99.90;;;;;;4947858;28;20860;-75
2022/09/20 15:33:34;;;;;;;5.27;1.90;;;18.20;99.90;;;;;;4948264;28;20462;-75
2022/09/20 15:36:02;;;;;;;3.27;1.83;;;18.30;99.90;;;;;;4947312;28;20461;-75
2022/09/20 15:38:29;;;;;;;4.90;1.73;;;18.30;99.90;;;;;;4948292;28;20467;-75
2022/09/20 15:40:56;;;;;;;3.47;1.60;;;18.30;99.90;;;;;;4947885;28;21005;-75
2022/09/20 15:43:26;;;;;;;4.73;1.77;;;18.40;99.90;;;;;;4947884;28;20448;-75
2022/09/20 15:45:54;;;;;;;3.73;1.60;;;18.60;99.90;;;;;;4946612;28;20469;-76
2022/09/20 15:48:22;;;;;;;3.37;1.90;;;18.60;99.90;;;;;;4948128;28;20461;-75
2022/09/20 15:51:01;;;;;;;3.10;1.50;;;18.70;99.90;;;;;;4947752;28;21193;-75
2022/09/20 15:53:30;;;;;;;7.07;1.93;;;18.90;99.90;;;;;;4947693;28;20501;-75
2022/09/20 15:56:00;;;;;;;8.33;1.90;;;18.90;99.90;;;;;;4947258;28;20469;-75
2022/09/20 15:58:27;;;;;;;4.00;1.80;;;18.90;99.90;;;;;;4948353;28;20469;-75
2022/09/20 16:00:54;;;;;;;3.80;1.80;;;18.90;99.90;;;;;;4947303;28;21028;-74
2022/09/20 16:03:27;;;;;;;2.13;1.50;;;18.80;99.90;;;;;;4947648;28;20465;-74
2022/09/20 16:06:00;;;;;;;4.87;1.80;;;18.50;99.90;;;;;;4947296;28;20453;-74
2022/09/20 16:08:30;;;;;;;2.87;1.87;;;18.30;99.90;;;;;;4947541;28;20460;-74
2022/09/20 16:10:58;;;;;;;5.40;1.67;;;18.20;99.90;;;;;;4947841;28;20511;-74
2022/09/20 16:13:24;;;;;;;3.77;1.60;;;18.10;99.90;;;;;;4948050;28;20460;-74
2022/09/20 16:15:55;;;;;;;2.60;1.50;;;18.00;99.90;;;;;;4947077;28;20461;-74
2022/09/20 16:21:10;;;;;;;6.27;2.20;;;18.00;99.90;;;;;;4945242;29;20453;-75
2022/09/20 16:23:38;;;;;;;2.37;1.40;;;17.70;99.90;;;;;;4945221;28;20762;-75
2022/09/20 16:26:05;;;;;;;4.63;2.07;;;17.60;99.90;;;;;;4945067;28;20465;-75
2022/09/20 16:28:32;;;;;;;2.73;1.70;;;17.30;99.90;;;;;;4945440;28;20496;-76
2022/09/20 16:31:00;;;;;;;3.40;2.40;;;17.10;99.90;;;;;;4945331;28;21027;-76
2022/09/20 16:33:27;;;;;;;4.20;2.60;;;17.00;99.90;;;;;;4946055;28;20472;-76
2022/09/20 16:35:55;;;;;;;5.20;2.70;;;16.80;99.90;;;;;;4946370;28;20465;-76
2022/09/20 16:38:23;;;;;;;5.47;2.33;;;16.60;99.90;;;;;;4947622;28;20525;-76
2022/09/20 16:40:51;;;;;;;4.23;2.20;;;16.40;99.90;;;;;;4947462;28;20474;-76
2022/09/20 16:43:23;;;;;;;5.70;2.60;;;16.20;99.90;;;;;;4947343;28;20468;-75
2022/09/20 16:45:59;;;;;;;9.37;2.80;;;16.00;99.90;;;;;;4946716;28;20457;-76
2022/09/20 16:48:28;;;;;;;5.50;2.87;;;15.90;99.90;;;;;;4947305;28;20461;-76
2022/09/20 16:50:55;;;;;;;5.17;2.47;;;15.80;99.90;;;;;;4946634;28;21044;-76
2022/09/20 16:53:25;;;;;;;5.60;2.70;;;15.70;99.90;;;;;;4947321;28;20469;-76
2022/09/20 16:55:54;;;;;;;6.83;2.53;;;15.70;99.90;;;;;;4946557;28;20455;-76
2022/09/20 16:58:27;;;;;;;5.33;2.67;;;15.50;99.90;;;;;;4949000;28;20474;-76
2022/09/20 17:00:53;;;;;;;4.40;2.10;;;15.40;99.90;;;;;;4950689;28;20485;-76
2022/09/20 17:03:25;;;;;;;6.27;2.10;;;15.30;99.90;;;;;;4951027;28;20473;-76
2022/09/20 17:05:52;;;;;;;8.80;2.67;;;15.40;99.90;;;;;;4950112;28;20466;-76
2022/09/20 17:08:19;;;;;;;5.67;2.50;;;15.40;99.90;;;;;;4951048;28;20461;-76
2022/09/20 17:10:50;;;;;;;4.03;2.70;;;15.30;99.90;;;;;;4950521;28;20497;-76
2022/09/20 17:13:17;;;;;;;4.30;2.87;;;15.30;99.90;;;;;;4950661;28;20461;-76
2022/09/20 17:15:44;;;;;;;4.53;2.40;;;15.20;99.90;;;;;;4949964;28;21048;-75
2022/09/20 17:18:10;;;;;;;2.83;2.10;;;15.10;99.90;;;;;;4950450;28;20469;-75
2022/09/20 17:20:39;;;;;;;5.50;2.80;;;15.00;99.90;;;;;;4950666;28;20488;-76
2022/09/20 17:23:07;;;;;;;4.53;2.20;;;14.90;99.90;;;;;;4950615;28;20557;-75
2022/09/20 17:25:34;;;;;;;3.33;2.53;;;14.80;99.90;;;;;;4949775;28;20472;-75
2022/09/20 17:28:03;;;;;;;5.53;2.60;;;14.80;99.90;;;;;;4950274;28;20479;-76
2022/09/20 17:30:30;;;;;;;5.60;2.60;;;14.70;99.90;;;;;;4950119;28;20931;-75
2022/09/20 17:32:56;;;;;;;3.90;2.80;;;14.70;99.90;;;;;;4950134;28;20465;-76